Flight Track Log - Related Links

Times and Time Zones

All times are in EDT time to prevent confusion due to time zone crossing. See the UAL4236 flight status page for this flight to view local times or setup timezone preferences in your user account.

Time Position Orientation Groundspeed Altitude Reporting Facility
EDT Latitude Longitude Course Direction KTS MPH feet Rate Location/Type
Fri 09:46:26 AM 29.9594 -95.3414 276° West 162 186 800  Level Houston Center
Fri 09:47:21 AM 29.9261 -95.3672 214° Southwest 220 253 2,700 1,823 Climbing Houston Center
Fri 09:47:45 AM 29.9300 -95.3917 280° West 228 262 3,200 2,129 Climbing Houston Center
Fri 09:48:23 AM 29.9394 -95.4450 282° West 266 306 4,900 2,516 Climbing Houston Center
Fri 09:48:47 AM 29.9464 -95.4719 287° West 253 291 5,800 2,791 Climbing Houston Center
Fri 09:49:00 AM 30.0233 -95.6897 276° West  Level FlightAware Approximate
Fri 09:49:49 AM 29.9639 -95.5531 284° West 261 300 8,900  Level Houston Center
Fri 09:50:00 AM 30.0341 -95.8096 276° West  Level FlightAware Approximate
Fri 09:50:51 AM 29.9814 -95.6347 284° West 262 302 11,000  Level Houston Center
Fri 09:51:00 AM 30.0442 -95.9295 276° West  Level FlightAware Approximate
Fri 09:51:53 AM 30.0069 -95.7533 284° West 320 368 12,400  Level Houston Center
Fri 09:52:55 AM 30.0281 -95.8597 283° West 340 391 13,900 1,500 Climbing Houston Center
Fri 09:53:57 AM 30.0508 -95.9692 284° West 350 403 15,500 1,694 Climbing Houston Center
Fri 09:54:59 AM 30.0750 -96.0917 283° West 354 407 17,400 1,548 Climbing Houston Center
Fri 09:56:01 AM 30.0925 -96.2031 280° West 354 407 18,700 1,403 Climbing Houston Center
Fri 09:57:03 AM 30.1097 -96.3167 280° West 360 414 20,300 1,680 Climbing Houston Center
Fri 09:58:06 AM 30.1286 -96.4408 280° West 364 419 22,200 1,680 Climbing Houston Center
Fri 09:59:08 AM 30.1461 -96.5572 280° West 364 419 23,800 1,452 Climbing Houston Center
Fri 10:00:10 AM 30.1647 -96.6767 280° West 371 427 25,200 1,161 Climbing Houston Center
Fri 10:01:12 AM 30.1828 -96.7978 280° West 378 435 26,200 919 Climbing Houston Center
Fri 10:02:14 AM 30.2014 -96.9206 280° West 384 442 27,100 919 Climbing Houston Center
Fri 10:03:16 AM 30.2192 -97.0450 279° West 387 445 28,100 1,016 Climbing Houston Center
Fri 10:04:18 AM 30.2403 -97.1894 280° West 387 445 29,200 1,008 Climbing Houston Center
Fri 10:05:21 AM 30.2592 -97.3136 280° West 388 447 30,200 960 Climbing Houston Center
Fri 10:06:23 AM 30.2772 -97.4408 279° West 393 452 31,200 823 Climbing Houston Center
Fri 10:07:25 AM 30.2956 -97.5672 280° West 396 456 31,900 774 Climbing Houston Center
Fri 10:08:27 AM 30.3128 -97.6914 279° West 388 447 32,800 919 Climbing Houston Center
Fri 10:09:29 AM 30.3306 -97.8086 280° West 369 425 33,800 581 Climbing Houston Center
Fri 10:10:31 AM 30.3528 -97.9231 283° West 362 417 34,000 97 Climbing Houston Center
Fri 10:11:33 AM 30.3767 -98.0433 283° West 376 433 34,000  Level Houston Center
Fri 10:12:35 AM 30.4053 -98.1869 283° West 387 445 34,000  Level Houston Center
Fri 10:13:38 AM 30.4283 -98.3114 282° West 390 449 34,000  Level Houston Center
Fri 10:14:40 AM 30.4528 -98.4367 283° West 395 455 34,000  Level Houston Center
Fri 10:15:42 AM 30.4758 -98.5628 282° West 394 453 34,000  Level Houston Center
Fri 10:16:44 AM 30.5003 -98.6894 283° West 399 459 34,000  Level Houston Center
Fri 10:17:46 AM 30.5250 -98.8161 283° West 399 459 34,000  Level Houston Center
Fri 10:18:48 AM 30.5489 -98.9428 282° West 400 460 34,000  Level Houston Center
Fri 10:19:50 AM 30.5769 -99.0917 282° West 401 461 34,000  Level Houston Center
Fri 10:20:52 AM 30.6014 -99.2208 282° West 401 461 34,000  Level Houston Center
Fri 10:21:54 AM 30.6247 -99.3478 282° West 404 465 34,000  Level Houston Center
Fri 10:22:57 AM 30.6478 -99.4742 282° West 403 464 34,000  Level Houston Center
Fri 10:23:59 AM 30.6717 -99.6014 282° West 405 466 34,000  Level Houston Center
Fri 10:25:01 AM 30.6942 -99.7297 282° West 407 468 34,000  Level Houston Center
Fri 10:26:03 AM 30.7197 -99.8800 281° West 399 459 34,000  Level Houston Center
Fri 10:27:05 AM 30.7444 -100.0092 283° West 411 473 34,000  Level Houston Center
Fri 10:28:07 AM 30.7675 -100.1403 282° West 414 476 34,000  Level Houston Center
Fri 10:29:09 AM 30.7900 -100.2669 282° West 406 467 34,000  Level Houston Center
Fri 10:30:11 AM 30.8117 -100.3956 281° West 403 464 34,000  Level Houston Center
Fri 10:31:14 AM 30.8383 -100.5467 282° West 402 463 34,000  Level Houston Center
Fri 10:32:16 AM 30.8594 -100.6711 281° West 398 458 34,000  Level Houston Center
Fri 10:33:18 AM 30.8811 -100.7922 282° West 387 445 34,000  Level Houston Center
Fri 10:34:21 AM 30.9011 -100.9128 281° West 384 442 34,000  Level Houston Center
Fri 10:35:22 AM 30.9225 -101.0339 282° West 384 442 34,000  Level Houston Center
Fri 10:36:24 AM 30.9422 -101.1544 281° West 381 438 34,000  Level Houston Center
Fri 10:37:26 AM 30.9669 -101.2997 281° West 382 440 34,000  Level Houston Center
Fri 10:38:28 AM 30.9858 -101.4181 281° West 372 428 34,000  Level Houston Center
Fri 10:38:58 AM 30.9958 -101.4681 283° West 388 447 34,000  Level Albuquerque Center
Fri 10:40:00 AM 31.0211 -101.6172 281° West 391 450 34,000  Level Albuquerque Center
Fri 10:41:02 AM 31.0417 -101.7461 281° West 401 461 34,000  Level Albuquerque Center
Fri 10:42:04 AM 31.0622 -101.8756 281° West 406 467 34,000  Level Albuquerque Center
Fri 10:43:06 AM 31.0825 -102.0089 280° West 428 493 34,000  Level Albuquerque Center
Fri 10:44:07 AM 31.1047 -102.1386 281° West 415 478 34,000  Level Albuquerque Center
Fri 10:45:09 AM 31.1256 -102.2700 281° West 413 475 34,000  Level Albuquerque Center
Fri 10:46:11 AM 31.1450 -102.3964 280° West 401 461 34,000  Level Albuquerque Center
Fri 10:47:13 AM 31.1692 -102.5478 281° West 396 456 34,000  Level Albuquerque Center
Fri 10:48:15 AM 31.1856 -102.6589 280° West 393 452 34,000  Level Albuquerque Center
Fri 10:49:16 AM 31.2100 -102.8125 281° West 398 458 34,000  Level Albuquerque Center
Fri 10:50:18 AM 31.2294 -102.9414 280° West 400 460 34,000  Level Albuquerque Center
Fri 10:51:20 AM 31.2500 -103.0697 281° West 403 464 34,000  Level Albuquerque Center
Fri 10:52:22 AM 31.2683 -103.1975 280° West 400 460 34,000  Level Albuquerque Center
Fri 10:53:24 AM 31.2867 -103.3247 280° West 397 457 34,000  Level Albuquerque Center
Fri 10:54:25 AM 31.3056 -103.4519 280° West 398 458 34,000 -49 Level Albuquerque Center
Fri 10:55:27 AM 31.3253 -103.5783 280° West 396 456 33,900  Descending Albuquerque Center
Fri 10:56:29 AM 31.3478 -103.7303 280° West 395 455 34,000 48 Climbing Albuquerque Center
Fri 10:57:31 AM 31.3653 -103.8356 281° West 396 456 34,000 -242 Level Albuquerque Center
Fri 10:58:33 AM 31.3858 -103.9875 279° West 396 456 33,500 -726 Descending Albuquerque Center
Fri 10:59:35 AM 31.4044 -104.1169 280° West 404 465 32,500 -968 Descending Albuquerque Center
Fri 11:00:37 AM 31.4236 -104.2428 280° West 397 457 31,500 -919 Descending Albuquerque Center
Fri 11:01:39 AM 31.4408 -104.3686 279° West 393 452 30,600 -919 Descending Albuquerque Center
Fri 11:02:41 AM 31.4575 -104.4964 279° West 398 458 29,600 -1,065 Descending Albuquerque Center
Fri 11:03:43 AM 31.4747 -104.6542 277° West 406 467 28,400 -1,016 Descending Albuquerque Center
Fri 11:04:45 AM 31.4881 -104.7881 277° West 412 474 27,500 -919 Descending Albuquerque Center
Fri 11:05:47 AM 31.5031 -104.9239 277° West 418 481 26,500 -1,500 Descending Albuquerque Center
Fri 11:06:49 AM 31.5161 -105.0564 277° West 418 481 24,400 -2,661 Descending Albuquerque Center
Fri 11:07:51 AM 31.5283 -105.1836 276° West 410 472 21,000 -3,581 Descending Albuquerque Center
Fri 11:08:53 AM 31.5431 -105.3336 277° West 398 458 17,000 -2,806 Descending Albuquerque Center
Fri 11:09:55 AM 31.5533 -105.4508 276° West 360 414 15,200 -1,879 Descending Albuquerque Center
Fri 11:10:32 AM 31.5597 -105.5200 276° West 329 379 13,900 -2,032 Descending Albuquerque Center
Fri 11:10:57 AM 31.5644 -105.5597 278° West 340 391 13,100 -2,164 Descending Albuquerque Center
Fri 11:11:33 AM 31.5719 -105.6292 277° West 336 387 11,700 -1,935 Descending Albuquerque Center
Fri 11:11:59 AM 31.5806 -105.6672 285° West 337 388 11,100 -1,500 Descending Albuquerque Center
Fri 11:13:01 AM 31.6219 -105.7514 300° West 302 348 9,500 -1,516 Descending Albuquerque Center
Fri 11:13:34 AM 31.6406 -105.8139 289° West 282 325 8,700 -1,258 Descending Albuquerque Center
Fri 11:14:03 AM 31.6508 -105.8394 295° West 292 336 8,200 -492 Descending Albuquerque Center
Fri 11:14:35 AM 31.6717 -105.9008 292° West 285 328 8,200 -387 Level Albuquerque Center
Fri 11:15:05 AM 31.6878 -105.9403 296° West 282 325 7,800 -900 Descending Albuquerque Center
Fri 11:15:35 AM 31.7039 -105.9828 294° West 277 319 7,300 -774 Descending Albuquerque Center
Fri 11:16:07 AM 31.7189 -106.0222 294° West 277 319 7,000 -218 Descending Albuquerque Center
Fri 11:16:30 AM 31.7328 -106.0578 295° West 271 312 7,100  Climbing Albuquerque Center
Fri 11:17:09 AM 31.7475 -106.0997 292° West 261 300 7,000  Descending Albuquerque Center
Fri 11:17:31 AM 31.7592 -106.1311 294° West 244 281 7,100  Climbing Albuquerque Center
Fri 11:18:11 AM 31.7758 -106.1714 296° West 246 283 7,000 -529 Descending Albuquerque Center
Fri 11:19:13 AM 31.7953 -106.2392 289° West 213 245 6,200 -774 Descending Albuquerque Center

Login

Don't have an account? Register now (free) for customized features, flight alerts, and more!